Time;durP1;ratioP1;P1;durP2;ratioP2;P2;SDS_P1;SDS_P2;PMS_P1;PMS_P2;Temp;Humidity;BMP_temperature;BMP_pressure;BME280_temperature;BME280_humidity;BME280_pressure;Samples;Min_cycle;Max_cycle;Signal;HPM_P1;HPM_P2
2024/02/14 00:01:15;;;;;;;9.40;8.47;;;;;;;3.87;100.00;152358.13;5070628;28;20470;-92
2024/02/14 00:03:42;;;;;;;10.30;8.70;;;;;;;3.87;100.00;152358.13;5035591;28;20430;-92
2024/02/14 00:06:08;;;;;;;10.53;8.20;;;;;;;3.89;100.00;152363.25;5035412;28;20446;-92
2024/02/14 00:08:35;;;;;;;10.40;8.83;;;;;;;3.87;100.00;152358.13;5032241;28;20458;-92
2024/02/14 00:11:02;;;;;;;9.67;8.67;;;;;;;3.88;100.00;152359.44;5032618;28;20462;-92
2024/02/14 00:13:28;;;;;;;9.70;8.53;;;;;;;3.91;100.00;152367.16;5032191;28;20873;-92
2024/02/14 00:15:57;;;;;;;11.13;7.70;;;;;;;3.89;100.00;152363.25;5032951;28;20569;-92
2024/02/14 00:18:24;;;;;;;10.50;9.03;;;;;;;3.91;100.00;152367.16;5035966;28;20795;-91
2024/02/14 00:20:50;;;;;;;10.63;8.70;;;;;;;3.94;100.00;152374.88;5035871;28;20433;-91
2024/02/14 00:23:17;;;;;;;9.13;7.60;;;;;;;3.91;100.00;152367.16;5035397;28;20438;-91
2024/02/14 00:25:44;;;;;;;15.23;8.53;;;;;;;3.90;100.00;152365.84;5035842;28;20470;-91
2024/02/14 00:28:10;;;;;;;9.43;7.50;;;;;;;3.90;100.00;152364.56;5035824;28;20478;-91
2024/02/14 00:30:37;;;;;;;8.57;7.63;;;;;;;3.91;100.00;152368.47;5035230;28;20451;-91
2024/02/14 00:33:05;;;;;;;8.63;7.83;;;;;;;3.93;100.00;152373.59;5029570;28;20783;-91
2024/02/14 00:35:32;;;;;;;8.30;7.27;;;;;;;3.94;100.00;152374.88;5035639;28;20921;-91
2024/02/14 00:37:59;;;;;;;8.80;6.83;;;;;;;3.94;100.00;152374.88;5035806;28;20437;-91
2024/02/14 00:40:26;;;;;;;9.33;7.00;;;;;;;3.97;100.00;152382.63;5035425;28;20443;-91
2024/02/14 00:42:52;;;;;;;7.90;6.93;;;;;;;3.98;100.00;152385.16;5035351;28;20499;-91
2024/02/14 00:45:19;;;;;;;10.37;7.40;;;;;;;3.99;100.00;152389.06;5035130;28;20496;-91
2024/02/14 00:47:46;;;;;;;9.87;6.80;;;;;;;4.02;100.00;152396.78;5035519;28;20483;-92
2024/02/14 00:50:14;;;;;;;7.97;6.57;;;;;;;4.05;100.00;152404.47;5035096;28;20534;-91
2024/02/14 00:52:40;;;;;;;7.67;6.10;;;;;;;4.10;100.00;152416.09;5035428;28;20435;-91
2024/02/14 00:55:07;;;;;;;6.10;5.50;;;;;;;4.18;100.00;152436.72;5035080;28;20447;-91
2024/02/14 00:57:34;;;;;;;12.80;5.97;;;;;;;4.22;100.00;152448.28;5035019;28;20435;-92
2024/02/14 01:00:01;;;;;;;7.00;5.40;;;;;;;4.27;100.00;152459.88;5035817;28;20928;-90
2024/02/14 01:02:27;;;;;;;5.97;4.93;;;;;;;4.31;100.00;152471.44;5036732;28;20435;-90
2024/02/14 01:04:54;;;;;;;6.37;4.60;;;;;;;4.38;100.00;152488.22;5045713;28;20459;-91
2024/02/14 01:07:22;;;;;;;5.40;4.90;;;;;;;4.44;100.00;152503.69;5050376;28;20482;-91
2024/02/14 01:09:49;;;;;;;5.57;4.43;;;;;;;4.46;100.00;152507.53;5039572;28;20442;-91
2024/02/14 01:12:16;;;;;;;6.37;4.80;;;;;;;4.50;100.00;152519.09;5054911;28;20536;-92
2024/02/14 01:14:43;;;;;;;6.50;4.77;;;;;;;4.51;100.00;152521.69;5054785;28;20526;-91
2024/02/14 01:17:10;;;;;;;5.77;4.30;;;;;;;4.53;100.00;152525.53;5054809;28;20437;-92
2024/02/14 01:19:36;;;;;;;5.27;4.07;;;;;;;4.55;100.00;152532.03;5054905;28;20438;-92
2024/02/14 01:22:03;;;;;;;5.87;4.20;;;;;;;4.58;100.00;152538.47;5044676;28;20765;-92
2024/02/14 01:24:32;;;;;;;6.87;5.00;;;;;;;4.63;100.00;152552.59;5038006;28;20422;-92
2024/02/14 01:26:58;;;;;;;5.60;4.83;;;;;;;4.67;100.00;152561.63;5037789;28;20466;-91
2024/02/14 01:29:25;;;;;;;4.73;4.10;;;;;;;4.69;100.00;152568.06;5037696;28;20454;-91
2024/02/14 01:31:51;;;;;;;5.60;3.70;;;;;;;4.70;100.00;152570.66;5037978;28;20445;-91
2024/02/14 01:34:18;;;;;;;7.10;4.13;;;;;;;4.71;100.00;152573.22;5038014;28;20508;-91
2024/02/14 01:36:44;;;;;;;4.97;3.53;;;;;;;4.73;100.00;152578.41;5054558;28;20480;-92
2024/02/14 01:39:11;;;;;;;4.70;3.73;;;;;;;4.74;100.00;152580.97;5037660;28;20453;-92
2024/02/14 01:41:39;;;;;;;4.77;4.10;;;;;;;4.77;100.00;152588.69;5037492;28;20454;-91
2024/02/14 01:44:06;;;;;;;5.30;4.10;;;;;;;4.79;100.00;152593.84;5037563;28;20433;-91
2024/02/14 01:46:33;;;;;;;7.80;5.00;;;;;;;4.80;100.00;152596.44;5037276;28;20449;-91
2024/02/14 01:49:00;;;;;;;5.10;3.57;;;;;;;4.83;100.00;152604.16;5037305;28;20515;-92
2024/02/14 01:51:26;;;;;;;5.03;3.47;;;;;;;4.86;100.00;152611.91;5037360;28;20495;-91
2024/02/14 01:53:54;;;;;;;5.50;3.83;;;;;;;4.87;100.00;152614.47;5037339;28;20442;-91
2024/02/14 01:56:21;;;;;;;4.77;3.87;;;;;;;4.87;100.00;152614.47;5037256;28;20448;-91
2024/02/14 01:58:50;;;;;;;4.07;3.67;;;;;;;4.90;100.00;152622.19;5037585;28;20438;-93
2024/02/14 02:01:17;;;;;;;4.40;3.60;;;;;;;4.92;100.00;152627.34;5037274;28;20442;-91
2024/02/14 02:03:44;;;;;;;4.30;3.30;;;;;;;4.93;100.00;152629.94;5037176;28;20488;-91
2024/02/14 02:06:10;;;;;;;4.90;4.10;;;;;;;4.97;100.00;152637.69;5036960;28;20464;-91
2024/02/14 02:08:37;;;;;;;5.87;3.47;;;;;;;4.95;100.00;152632.53;5033192;28;20487;-91
2024/02/14 02:11:05;;;;;;;5.03;3.67;;;;;;;4.95;100.00;152632.53;5033697;28;20516;-92
2024/02/14 02:13:32;;;;;;;4.53;3.37;;;;;;;4.97;100.00;152637.69;5033918;28;20837;-91
2024/02/14 02:16:04;;;;;;;5.10;4.40;;;;;;;4.99;100.00;152642.81;5033564;28;20467;-91
2024/02/14 02:18:30;;;;;;;4.83;4.33;;;;;;;5.01;100.00;152647.97;5033646;28;20868;-92
2024/02/14 02:20:57;;;;;;;7.47;4.50;;;;;;;5.02;100.00;152650.56;5033371;28;20443;-91
2024/02/14 02:23:25;;;;;;;5.50;4.20;;;;;;;5.02;100.00;152650.56;5033592;28;20849;-91
2024/02/14 02:25:51;;;;;;;5.40;3.77;;;;;;;5.02;100.00;152650.56;5033359;28;20505;-91
2024/02/14 02:28:18;;;;;;;4.57;3.60;;;;;;;5.01;100.00;152647.97;5033448;28;20475;-92
2024/02/14 02:30:46;;;;;;;6.10;4.30;;;;;;;5.01;100.00;152647.97;5033307;28;20508;-91
2024/02/14 02:33:13;;;;;;;4.63;4.17;;;;;;;5.01;100.00;152647.97;5033349;28;20431;-92
2024/02/14 02:35:45;;;;;;;4.70;3.67;;;;;;;5.02;100.00;152650.56;5033408;28;20562;-91
2024/02/14 02:38:11;;;;;;;5.50;3.73;;;;;;;5.03;100.00;152654.41;5033345;28;20588;-91
2024/02/14 02:40:40;;;;;;;5.90;3.90;;;;;;;5.04;100.00;152655.69;5048735;28;20450;-92
2024/02/14 02:43:06;;;;;;;6.87;4.90;;;;;;;5.04;100.00;152655.69;5033098;28;20459;-91
2024/02/14 02:45:33;;;;;;;6.37;3.80;;;;;;;5.03;100.00;152654.41;5033062;28;20451;-91
2024/02/14 02:48:00;;;;;;;6.57;3.90;;;;;;;5.04;100.00;152657.00;5032973;28;20466;-91
2024/02/14 02:50:27;;;;;;;7.17;4.80;;;;;;;5.03;100.00;152654.41;5033024;28;20953;-91
2024/02/14 02:52:54;;;;;;;5.87;4.30;;;;;;;5.05;100.00;152658.31;5033220;28;20431;-91
2024/02/14 02:55:21;;;;;;;5.30;4.30;;;;;;;5.05;100.00;152658.31;5041455;28;20496;-91
2024/02/14 02:57:50;;;;;;;5.60;4.20;;;;;;;5.07;100.00;152663.44;5039663;28;20427;-91
2024/02/14 03:00:21;;;;;;;6.30;4.77;;;;;;;5.05;100.00;152658.31;5032932;28;20557;-91
2024/02/14 03:02:47;;;;;;;5.80;4.70;;;;;;;5.04;100.00;152655.69;5033165;28;20431;-92
2024/02/14 03:05:17;;;;;;;5.17;4.43;;;;;;;5.03;100.00;152654.41;5032816;28;20473;-91
2024/02/14 03:07:46;;;;;;;5.07;4.23;;;;;;;5.05;100.00;152658.31;5032803;28;20553;-91
2024/02/14 03:10:13;;;;;;;5.10;4.10;;;;;;;5.04;100.00;152657.00;5032742;28;20554;-90
2024/02/14 03:12:40;;;;;;;6.30;4.87;;;;;;;5.03;100.00;152654.41;5032748;28;20442;-91
2024/02/14 03:15:10;;;;;;;5.07;4.33;;;;;;;5.05;100.00;152658.31;5032661;28;20453;-91
2024/02/14 03:17:36;;;;;;;6.93;4.60;;;;;;;5.05;100.00;152658.31;5033047;28;20447;-91
2024/02/14 03:20:10;;;;;;;4.30;3.70;;;;;;;5.04;100.00;152655.69;5032577;28;20477;-91
2024/02/14 03:22:36;;;;;;;4.90;4.40;;;;;;;5.03;100.00;152653.16;5032555;28;20442;-91
2024/02/14 03:25:03;;;;;;;6.90;4.30;;;;;;;4.98;100.00;152641.53;5032498;28;20475;-91
2024/02/14 03:27:31;;;;;;;5.33;4.57;;;;;;;4.94;100.00;152631.22;5032821;28;20528;-91
2024/02/14 03:30:02;;;;;;;7.00;5.13;;;;;;;4.91;100.00;152623.50;5032538;28;20546;-92
2024/02/14 03:32:30;;;;;;;8.80;5.10;;;;;;;4.86;100.00;152610.63;5032898;28;20466;-91
2024/02/14 03:34:58;;;;;;;6.37;5.30;;;;;;;4.82;100.00;152601.56;5032781;28;20486;-91
2024/02/14 03:37:24;;;;;;;6.50;5.10;;;;;;;4.81;100.00;152599.03;5032828;28;20530;-91
2024/02/14 03:39:51;;;;;;;7.00;5.73;;;;;;;4.82;100.00;152600.28;5032629;28;20462;-91
2024/02/14 03:42:19;;;;;;;6.87;4.60;;;;;;;4.79;100.00;152593.84;5032857;28;20534;-91
2024/02/14 03:44:46;;;;;;;5.07;4.57;;;;;;;4.81;100.00;152599.03;5032506;28;20489;-92
2024/02/14 03:47:13;;;;;;;5.47;4.73;;;;;;;4.83;100.00;152604.16;5032186;28;20431;-91
2024/02/14 03:49:41;;;;;;;6.20;4.17;;;;;;;4.85;100.00;152609.31;5032244;28;20906;-91
2024/02/14 03:52:09;;;;;;;5.03;3.67;;;;;;;4.90;100.00;152620.91;5035200;28;20443;-91
2024/02/14 03:54:36;;;;;;;5.87;4.67;;;;;;;4.92;100.00;152627.34;5036013;28;20449;-91
2024/02/14 03:57:04;;;;;;;4.77;3.57;;;;;;;4.96;100.00;152635.06;5036341;28;20941;-91
2024/02/14 03:59:30;;;;;;;5.57;4.07;;;;;;;4.99;100.00;152644.13;5036045;28;20429;-91
2024/02/14 04:01:58;;;;;;;5.57;4.10;;;;;;;5.03;100.00;152653.16;5036255;28;20431;-91
2024/02/14 04:04:24;;;;;;;4.70;4.20;;;;;;;5.03;100.00;152653.16;5036082;28;20443;-91
2024/02/14 04:06:53;;;;;;;6.30;3.70;;;;;;;5.04;100.00;152655.69;5038984;28;20484;-91
2024/02/14 04:09:19;;;;;;;3.90;3.40;;;;;;;5.06;100.00;152660.84;5039275;28;20516;-91
2024/02/14 04:11:48;;;;;;;5.13;3.93;;;;;;;5.07;100.00;152663.44;5038927;28;20464;-91
2024/02/14 04:14:14;;;;;;;6.63;4.10;;;;;;;5.08;100.00;152667.34;5039267;28;20529;-90
2024/02/14 04:16:41;;;;;;;3.87;3.40;;;;;;;5.11;100.00;152673.78;5039085;28;20435;-90
2024/02/14 04:19:08;;;;;;;5.97;4.20;;;;;;;5.12;100.00;152677.63;5038970;28;20449;-90
2024/02/14 04:21:35;;;;;;;4.03;3.50;;;;;;;5.14;100.00;152682.78;5039206;28;20442;-91
2024/02/14 04:24:03;;;;;;;4.13;3.70;;;;;;;5.13;100.00;152678.94;5039112;28;20473;-91
2024/02/14 04:26:30;;;;;;;4.33;3.73;;;;;;;5.16;100.00;152686.66;5038911;28;20456;-91
2024/02/14 04:28:57;;;;;;;3.77;3.30;;;;;;;5.18;100.00;152693.09;5036160;28;20471;-91
2024/02/14 04:31:23;;;;;;;3.60;3.27;;;;;;;5.20;100.00;152696.94;5019127;28;20442;-90
2024/02/14 04:33:52;;;;;;;5.00;3.53;;;;;;;5.18;100.00;152693.09;5035926;28;20451;-91
2024/02/14 04:36:18;;;;;;;5.20;4.07;;;;;;;5.18;100.00;152691.81;5019223;28;20447;-90
2024/02/14 04:38:45;;;;;;;6.70;3.97;;;;;;;5.17;100.00;152689.22;5019290;28;20442;-91
2024/02/14 04:41:14;;;;;;;8.10;4.40;;;;;;;5.15;100.00;152684.06;5035633;28;20447;-91
2024/02/14 04:43:41;;;;;;;5.00;3.80;;;;;;;5.14;100.00;152681.47;5035958;28;20473;-91
2024/02/14 04:46:08;;;;;;;6.80;4.33;;;;;;;5.13;100.00;152678.94;5020376;28;20447;-91
2024/02/14 04:48:35;;;;;;;4.23;3.40;;;;;;;5.13;100.00;152678.94;5019363;28;20511;-91
2024/02/14 04:51:02;;;;;;;5.13;3.97;;;;;;;5.13;100.00;152678.94;5035519;28;20477;-90
2024/02/14 04:53:28;;;;;;;5.67;4.00;;;;;;;5.16;100.00;152686.66;5045875;28;20430;-91
2024/02/14 04:55:55;;;;;;;5.23;3.90;;;;;;;5.16;100.00;152686.66;5060540;28;20476;-90
2024/02/14 04:58:23;;;;;;;6.43;4.80;;;;;;;5.17;100.00;152689.22;5062367;28;20464;-90
2024/02/14 05:00:50;;;;;;;5.33;4.03;;;;;;;5.18;100.00;152691.81;5061407;28;20465;-91
2024/02/14 05:03:17;;;;;;;4.47;3.40;;;;;;;5.17;100.00;152689.22;5051525;28;20871;-90
2024/02/14 05:05:44;;;;;;;4.50;3.80;;;;;;;5.20;100.00;152696.94;5038312;28;20457;-91
2024/02/14 05:08:10;;;;;;;4.37;3.60;;;;;;;5.21;100.00;152699.56;5034421;28;20487;-91
2024/02/14 05:10:37;;;;;;;3.80;3.37;;;;;;;5.23;100.00;152704.69;5034525;28;20924;-90
2024/02/14 05:13:04;;;;;;;4.63;3.77;;;;;;;5.26;100.00;152712.44;5029384;28;20443;-90
2024/02/14 05:15:35;;;;;;;5.73;3.83;;;;;;;5.29;100.00;152720.19;5052198;28;20490;-91
2024/02/14 05:18:01;;;;;;;4.40;3.73;;;;;;;5.30;100.00;152722.72;5034224;28;20447;-90
2024/02/14 05:20:28;;;;;;;4.27;3.53;;;;;;;5.32;100.00;152727.91;5032189;28;20511;-90
2024/02/14 05:22:54;;;;;;;4.97;3.37;;;;;;;5.34;100.00;152733.06;5034508;28;20454;-90
2024/02/14 05:25:21;;;;;;;5.03;3.60;;;;;;;5.34;100.00;152734.38;5034389;28;20454;-90
2024/02/14 05:27:48;;;;;;;7.07;3.60;;;;;;;5.37;100.00;152742.09;5033887;28;20973;-90
2024/02/14 05:30:15;;;;;;;4.87;3.87;;;;;;;5.38;100.00;152744.66;5034145;28;20462;-90
2024/02/14 05:32:43;;;;;;;6.17;3.80;;;;;;;5.40;100.00;152748.56;5034402;28;20431;-90
2024/02/14 05:35:10;;;;;;;5.30;3.77;;;;;;;5.42;100.00;152753.69;5033976;28;20447;-91
2024/02/14 05:37:37;;;;;;;4.60;4.20;;;;;;;5.42;100.00;152753.69;5033736;28;20435;-90
2024/02/14 05:40:06;;;;;;;4.90;3.93;;;;;;;5.41;100.00;152751.09;5033949;28;20451;-90
2024/02/14 05:42:34;;;;;;;5.50;4.60;;;;;;;5.40;100.00;152748.56;5034209;28;20442;-90
2024/02/14 05:45:03;;;;;;;4.63;4.20;;;;;;;5.42;100.00;152753.69;5033632;28;20435;-91
2024/02/14 05:47:31;;;;;;;4.23;3.60;;;;;;;5.42;100.00;152753.69;5016926;28;20440;-90
2024/02/14 05:49:59;;;;;;;7.37;4.20;;;;;;;5.42;100.00;152755.00;5013886;28;20490;-90
2024/02/14 05:52:26;;;;;;;4.10;3.70;;;;;;;5.43;100.00;152757.53;5013921;28;20428;-89
2024/02/14 05:54:54;;;;;;;4.33;3.93;;;;;;;5.44;100.00;152760.13;5027737;28;20545;-89
2024/02/14 05:57:20;;;;;;;4.70;3.90;;;;;;;5.44;100.00;152758.84;5033806;28;20423;-90
2024/02/14 05:59:47;;;;;;;4.63;4.07;;;;;;;5.43;100.00;152756.25;5033565;28;20439;-89
2024/02/14 06:02:13;;;;;;;4.00;3.60;;;;;;;5.42;100.00;152755.00;5033459;28;20439;-89
2024/02/14 06:04:42;;;;;;;3.57;3.10;;;;;;;5.42;100.00;152753.69;5033636;28;20442;-89
2024/02/14 06:07:11;;;;;;;6.07;4.47;;;;;;;5.44;100.00;152760.13;5026935;28;20821;-90
2024/02/14 06:09:38;;;;;;;5.30;3.47;;;;;;;5.44;100.00;152758.84;5021907;28;20516;-90
2024/02/14 06:12:05;;;;;;;9.10;4.30;;;;;;;5.43;100.00;152756.25;4998413;28;20440;-90
2024/02/14 06:14:33;;;;;;;5.47;3.97;;;;;;;5.43;100.00;152756.25;5017353;28;20447;-90
2024/02/14 06:17:00;;;;;;;5.60;4.70;;;;;;;5.41;100.00;152751.09;5006361;28;20538;-90
2024/02/14 06:19:27;;;;;;;6.47;3.83;;;;;;;5.40;100.00;152749.81;5016913;28;20562;-91
2024/02/14 06:21:54;;;;;;;4.20;3.80;;;;;;;5.39;100.00;152745.94;5017008;28;20462;-91
2024/02/14 06:24:21;;;;;;;4.50;3.93;;;;;;;5.39;100.00;152747.25;5016721;28;20477;-90
2024/02/14 06:26:48;;;;;;;5.23;4.10;;;;;;;5.39;100.00;152745.94;5013410;28;20463;-90
2024/02/14 06:29:14;;;;;;;5.07;4.43;;;;;;;5.39;100.00;152747.25;4996695;28;20578;-90
2024/02/14 06:31:42;;;;;;;5.63;4.63;;;;;;;5.39;100.00;152745.94;5001717;28;20512;-90
2024/02/14 06:34:08;;;;;;;5.07;4.20;;;;;;;5.37;100.00;152740.81;5016793;28;20426;-91
2024/02/14 06:36:38;;;;;;;5.07;4.33;;;;;;;5.37;100.00;152742.09;5016378;28;20446;-90
2024/02/14 06:39:05;;;;;;;5.33;3.80;;;;;;;5.37;100.00;152742.09;5016692;28;20470;-90
2024/02/14 06:41:33;;;;;;;4.97;4.30;;;;;;;5.37;100.00;152740.81;5033278;28;20438;-91
2024/02/14 06:44:00;;;;;;;5.80;4.50;;;;;;;5.37;100.00;152742.09;5013254;28;20443;-90
2024/02/14 06:46:26;;;;;;;5.63;4.20;;;;;;;5.36;100.00;152739.50;5027072;28;20446;-90
2024/02/14 06:48:54;;;;;;;5.30;4.20;;;;;;;5.37;100.00;152740.81;5036294;28;20466;-90
2024/02/14 06:51:21;;;;;;;6.27;4.70;;;;;;;5.37;100.00;152742.09;5029830;28;20462;-89
2024/02/14 06:56:38;;;;;;;5.90;4.30;;;;;;;5.37;100.00;152740.81;5016492;28;20435;-90
2024/02/14 06:59:05;;;;;;;5.50;3.80;;;;;;;5.37;100.00;152742.09;5016246;28;20452;-91
2024/02/14 07:01:31;;;;;;;5.80;3.90;;;;;;;5.39;100.00;152747.25;5016197;28;20508;-90
2024/02/14 07:03:59;;;;;;;7.60;3.57;;;;;;;5.41;100.00;152751.09;5016179;28;20443;-90
2024/02/14 07:06:25;;;;;;;6.43;3.40;;;;;;;5.41;100.00;152752.41;5035439;28;20948;-90
2024/02/14 07:08:52;;;;;;;4.97;3.47;;;;;;;5.46;100.00;152764.00;5035781;28;20462;-90
2024/02/14 07:11:18;;;;;;;7.37;3.40;;;;;;;5.46;100.00;152765.28;5035808;28;20454;-90
2024/02/14 07:13:46;;;;;;;3.53;3.07;;;;;;;5.48;100.00;152770.44;5017021;28;20458;-90
2024/02/14 07:16:13;;;;;;;3.50;3.20;;;;;;;5.49;100.00;152771.72;5018391;28;20442;-90
2024/02/14 07:18:41;;;;;;;5.10;4.13;;;;;;;5.51;100.00;152778.19;5020410;28;20443;-89
2024/02/14 07:21:07;;;;;;;4.90;3.70;;;;;;;5.55;100.00;152787.22;5015423;28;20484;-90
2024/02/14 07:23:34;;;;;;;3.60;3.03;;;;;;;5.55;100.00;152787.22;5015815;28;20492;-90
2024/02/14 07:26:01;;;;;;;4.97;2.57;;;;;;;5.57;100.00;152791.06;5026721;28;20820;-89
2024/02/14 07:28:28;;;;;;;5.40;3.17;;;;;;;5.60;100.00;152800.09;5039506;28;20458;-90
2024/02/14 07:30:56;;;;;;;2.60;2.40;;;;;;;5.61;100.00;152802.72;5019449;28;20447;-90
2024/02/14 07:33:23;;;;;;;3.03;2.30;;;;;;;5.65;100.00;152813.00;5019841;28;20450;-89
2024/02/14 07:35:50;;;;;;;3.20;2.50;;;;;;;5.68;100.00;152820.75;5020157;28;20529;-90
2024/02/14 07:38:17;;;;;;;3.20;2.43;;;;;;;5.72;100.00;152831.03;5020064;28;20438;-90
2024/02/14 07:40:44;;;;;;;3.20;2.23;;;;;;;5.75;100.00;152837.47;5023097;28;20441;-90
2024/02/14 07:43:11;;;;;;;3.07;2.77;;;;;;;5.77;100.00;152843.94;5039504;28;20441;-90
2024/02/14 07:45:36;;;;;;;3.33;2.70;;;;;;;5.80;100.00;152850.44;5039247;28;20477;-89
2024/02/14 07:48:05;;;;;;;3.10;2.37;;;;;;;5.82;100.00;152856.88;5035875;28;20458;-89
2024/02/14 07:50:32;;;;;;;4.73;2.60;;;;;;;5.85;100.00;152864.63;5024689;28;20699;-89
2024/02/14 07:52:59;;;;;;;2.80;2.50;;;;;;;5.88;100.00;152872.34;5019296;28;20431;-89
2024/02/14 07:55:26;;;;;;;3.50;2.37;;;;;;;5.93;100.00;152884.00;5018400;28;20455;-89
2024/02/14 07:57:53;;;;;;;3.77;2.47;;;;;;;5.98;100.00;152898.16;4999563;28;20464;-89
2024/02/14 08:00:22;;;;;;;2.70;2.43;;;;;;;6.04;100.00;152913.63;5023601;28;20461;-89
2024/02/14 08:02:49;;;;;;;3.47;2.30;;;;;;;6.11;100.00;152931.72;5035305;28;20439;-89
2024/02/14 08:05:17;;;;;;;4.20;2.37;;;;;;;6.19;100.00;152951.06;5035274;28;20451;-89
2024/02/14 08:07:45;;;;;;;4.27;2.80;;;;;;;6.24;100.00;152962.66;5027407;28;21058;-89
2024/02/14 08:10:12;;;;;;;4.60;2.90;;;;;;;6.31;100.00;152982.03;5021656;28;20839;-89
2024/02/14 08:12:38;;;;;;;3.20;2.63;;;;;;;6.37;100.00;152996.22;5031901;28;20498;-89
2024/02/14 08:15:06;;;;;;;3.30;2.10;;;;;;;6.41;100.00;153007.81;5049398;28;20517;-89
2024/02/14 08:17:33;;;;;;;2.77;2.07;;;;;;;6.45;100.00;153016.88;5034730;28;20799;-89
2024/02/14 08:20:00;;;;;;;2.30;2.03;;;;;;;6.50;100.00;153029.75;5026438;28;20462;-88
2024/02/14 08:22:28;;;;;;;2.60;2.13;;;;;;;6.54;100.00;153040.13;5030203;28;20854;-88
2024/02/14 08:24:55;;;;;;;3.90;2.00;;;;;;;6.58;100.00;153050.41;5026863;28;20470;-89
2024/02/14 08:27:22;;;;;;;3.30;2.23;;;;;;;6.61;100.00;153058.16;5029601;28;20443;-90
2024/02/14 08:29:49;;;;;;;3.30;2.50;;;;;;;6.65;100.00;153069.78;5015868;28;20566;-89
2024/02/14 08:32:15;;;;;;;2.60;1.80;;;;;;;6.70;100.00;153081.38;5036840;28;21074;-89
2024/02/14 08:34:42;;;;;;;2.83;2.13;;;;;;;6.70;100.00;153082.66;5034515;28;20463;-89
2024/02/14 08:37:10;;;;;;;2.93;1.90;;;;;;;6.74;100.00;153091.72;5017019;28;20474;-89
2024/02/14 08:39:38;;;;;;;4.40;2.80;;;;;;;6.79;100.00;153104.63;5033502;28;20458;-89
2024/02/14 08:42:07;;;;;;;2.83;2.10;;;;;;;6.84;100.00;153117.53;5034583;28;20439;-89
2024/02/14 08:44:34;;;;;;;2.63;1.97;;;;;;;6.89;100.00;153130.44;5034810;28;20502;-89
2024/02/14 08:47:00;;;;;;;3.03;2.50;;;;;;;6.94;100.00;153143.34;5030858;28;20471;-89
2024/02/14 08:49:27;;;;;;;2.47;2.00;;;;;;;7.07;99.56;153176.91;5033864;28;20836;-89
2024/02/14 08:51:57;;;;;;;2.87;2.10;;;;;;;7.19;99.36;153207.91;5028369;28;20902;-88
2024/02/14 08:54:29;;;;;;;3.37;1.97;;;;;;;7.27;100.00;153228.56;5030629;28;20462;-88
2024/02/14 09:00:35;;;;;;;4.10;2.17;;;;;;;7.42;99.65;153264.69;5050529;28;20794;-89
2024/02/14 09:03:02;;;;;;;5.60;2.40;;;;;;;7.44;99.37;153269.91;5030317;28;20876;-89
2024/02/14 09:05:29;;;;;;;3.80;1.70;;;;;;;7.51;98.71;153287.97;5033308;28;20475;-89
2024/02/14 09:07:55;;;;;;;2.33;1.70;;;;;;;7.58;99.12;153307.34;5036977;28;20558;-89
2024/02/14 09:10:22;;;;;;;5.33;1.80;;;;;;;7.64;100.00;153321.56;5028673;28;20586;-89
2024/02/14 09:12:49;;;;;;;3.40;1.90;;;;;;;7.68;98.89;153333.16;5042220;28;20517;-89
2024/02/14 09:15:16;;;;;;;3.83;2.13;;;;;;;7.78;98.68;153357.72;5028835;28;20494;-89
2024/02/14 09:17:44;;;;;;;3.03;2.43;;;;;;;7.78;99.39;153358.97;5022650;28;20448;-89
2024/02/14 09:20:13;;;;;;;2.73;2.33;;;;;;;7.81;99.80;153365.50;5034119;28;20537;-89
2024/02/14 09:22:41;;;;;;;3.40;2.47;;;;;;;7.81;100.00;153365.50;5046323;28;20475;-89
2024/02/14 09:25:09;;;;;;;7.03;2.30;;;;;;;7.83;99.69;153371.94;5032556;28;20489;-89
2024/02/14 09:27:36;;;;;;;4.50;2.70;;;;;;;7.88;99.12;153383.56;5032850;28;20459;-89
2024/02/14 09:30:03;;;;;;;2.20;1.77;;;;;;;7.91;99.30;153391.31;5031409;28;20483;-89
2024/02/14 09:32:30;;;;;;;3.03;1.90;;;;;;;7.96;98.22;153404.22;5033915;28;20428;-89
2024/02/14 09:34:58;;;;;;;3.10;1.80;;;;;;;8.05;97.74;153427.47;5026504;28;20462;-89
2024/02/14 09:37:24;;;;;;;3.00;1.70;;;;;;;8.11;96.85;153441.69;5025658;28;20432;-89
2024/02/14 09:39:51;;;;;;;3.50;1.30;;;;;;;8.16;97.18;153455.91;5038234;28;20455;-89
2024/02/14 09:42:20;;;;;;;3.70;1.70;;;;;;;8.21;97.60;153468.81;5032396;28;20497;-89
2024/02/14 09:44:47;;;;;;;2.30;1.50;;;;;;;8.26;97.00;153481.75;5028933;28;20809;-89
2024/02/14 09:47:15;;;;;;;1.97;1.47;;;;;;;8.29;97.95;153489.56;5025682;28;20444;-89
2024/02/14 09:49:41;;;;;;;2.73;1.60;;;;;;;8.42;97.00;153521.84;5013704;28;20575;-89
2024/02/14 09:52:09;;;;;;;3.30;1.63;;;;;;;8.47;97.17;153536.06;5032387;28;20487;-89
2024/02/14 09:54:38;;;;;;;2.30;1.40;;;;;;;8.58;97.34;153564.53;5032210;28;20924;-89
2024/02/14 09:57:06;;;;;;;4.00;1.67;;;;;;;8.70;97.37;153592.97;5042299;28;20518;-89
2024/02/14 09:59:33;;;;;;;2.43;1.50;;;;;;;8.74;96.52;153604.59;5025444;28;20456;-89
2024/02/14 10:02:00;;;;;;;3.13;2.17;;;;;;;8.86;96.22;153634.34;5027613;28;20503;-89
2024/02/14 10:04:37;;;;;;;2.77;1.83;;;;;;;8.89;95.95;153642.13;5029911;28;20466;-90
2024/02/14 10:07:10;;;;;;;2.10;1.40;;;;;;;8.90;96.02;153644.66;5031031;28;20475;-90
2024/02/14 10:09:43;;;;;;;2.30;1.50;;;;;;;8.95;95.96;153658.91;5032217;28;20532;-90
2024/02/14 10:12:10;;;;;;;2.47;1.53;;;;;;;9.05;95.71;153683.50;5031857;28;20447;-78
2024/02/14 10:14:36;;;;;;;4.03;1.53;;;;;;;9.06;95.83;153686.06;5051646;28;20495;-77
2024/02/14 10:17:03;;;;;;;4.40;1.50;;;;;;;9.06;97.19;153686.06;5040713;28;20557;-77
2024/02/14 10:19:30;;;;;;;2.30;1.40;;;;;;;9.07;96.99;153689.97;5035275;28;20464;-77
2024/02/14 10:21:58;;;;;;;3.47;1.53;;;;;;;9.13;96.63;153704.19;5036548;28;20548;-77
2024/02/14 10:24:26;;;;;;;1.97;1.30;;;;;;;9.22;96.94;153726.13;5039464;28;20457;-77
2024/02/14 10:26:57;;;;;;;2.27;1.30;;;;;;;9.28;97.37;153742.97;5052907;28;20458;-77
2024/02/14 10:29:24;;;;;;;2.10;1.47;;;;;;;9.29;97.36;153745.59;5035534;28;20466;-77
2024/02/14 10:31:51;;;;;;;1.97;1.20;;;;;;;9.31;97.70;153750.75;5051585;28;20949;-77
2024/02/14 10:34:21;;;;;;;1.70;1.30;;;;;;;9.36;97.67;153762.38;5032408;28;20472;-77
2024/02/14 10:36:51;;;;;;;1.57;1.30;;;;;;;9.43;97.72;153781.75;5041599;28;20454;-89
2024/02/14 10:39:28;;;;;;;2.00;1.50;;;;;;;9.48;97.95;153794.69;5032069;28;20461;-90
2024/02/14 10:41:57;;;;;;;2.13;1.10;;;;;;;9.55;98.41;153811.53;5044811;28;20455;-90
2024/02/14 10:44:28;;;;;;;2.47;1.30;;;;;;;9.57;98.23;153816.69;5048094;28;20471;-90
2024/02/14 10:46:56;;;;;;;2.20;1.23;;;;;;;9.60;98.48;153824.47;5048577;28;20557;-91
2024/02/14 10:49:26;;;;;;;2.80;1.50;;;;;;;9.61;98.67;153828.34;5050129;28;20454;-90
2024/02/14 10:51:59;;;;;;;1.90;1.30;;;;;;;9.73;97.97;153859.41;5049647;28;20449;-91
2024/02/14 10:54:26;;;;;;;1.20;1.10;;;;;;;9.84;98.15;153886.59;5046199;28;20447;-78
2024/02/14 10:56:56;;;;;;;1.33;1.10;;;;;;;9.89;97.66;153898.22;5050885;28;20470;-78
2024/02/14 10:59:23;;;;;;;1.73;1.10;;;;;;;9.91;98.62;153903.38;5049079;28;20455;-78
2024/02/14 11:01:54;;;;;;;1.87;1.13;;;;;;;9.92;97.99;153906.00;5035411;28;20454;-78
2024/02/14 11:04:20;;;;;;;3.60;1.40;;;;;;;9.94;98.87;153911.16;5035276;28;20456;-78
2024/02/14 11:06:48;;;;;;;2.40;1.60;;;;;;;9.98;99.65;153922.78;5035509;28;20490;-79
2024/02/14 11:09:15;;;;;;;2.40;1.23;;;;;;;10.00;99.15;153926.69;5049197;28;21037;-78
2024/02/14 11:11:46;;;;;;;1.73;1.27;;;;;;;10.04;99.67;153937.03;5038342;28;20494;-79
2024/02/14 11:14:16;;;;;;;2.63;1.60;;;;;;;10.11;100.00;153955.19;5034920;28;20538;-78
2024/02/14 11:16:55;;;;;;;1.43;1.10;;;;;;;10.21;98.97;153981.09;5049899;28;21335;-78
2024/02/14 11:19:36;;;;;;;2.47;1.27;;;;;;;10.33;98.03;154012.16;5033609;28;20547;-78
2024/02/14 11:22:13;;;;;;;1.93;1.50;;;;;;;10.33;97.70;154012.16;5036518;28;20462;-78
2024/02/14 11:24:41;;;;;;;1.73;1.10;;;;;;;10.38;97.76;154025.09;5037465;28;20520;-78
2024/02/14 11:27:12;;;;;;;2.23;1.23;;;;;;;10.36;97.54;154021.22;5037376;28;20455;-78
2024/02/14 11:29:40;;;;;;;2.03;1.53;;;;;;;10.34;98.27;154016.06;5034734;28;20455;-78
2024/02/14 11:32:09;;;;;;;1.90;1.17;;;;;;;10.38;98.33;154025.09;5036273;28;21068;-79
2024/02/14 11:34:39;;;;;;;1.50;1.03;;;;;;;10.40;99.00;154030.31;5044086;28;20465;-90